createdAt,value
2022-12-12T06:30:49.144Z,-3.80
2022-12-12T06:33:16.696Z,-3.80
2022-12-12T06:35:43.857Z,-3.80
2022-12-12T06:38:11.152Z,-3.80
2022-12-12T06:40:41.068Z,-3.90
2022-12-12T06:43:08.323Z,-3.90
2022-12-12T06:45:35.530Z,-4.00
2022-12-12T06:48:02.971Z,-4.00
2022-12-12T06:50:31.768Z,-4.20
2022-12-12T06:55:27.003Z,-4.10
2022-12-12T06:57:54.329Z,-4.20
2022-12-12T07:00:21.569Z,-4.30
2022-12-12T07:02:48.895Z,-4.40
2022-12-12T07:05:16.490Z,-4.50
2022-12-12T07:07:44.193Z,-4.50
2022-12-12T07:10:11.486Z,-4.50
2022-12-12T07:12:38.907Z,-4.50
2022-12-12T07:15:06.529Z,-4.40
2022-12-12T07:17:33.827Z,-4.30
2022-12-12T07:20:01.295Z,-4.50
2022-12-12T07:22:29.427Z,-4.40
2022-12-12T07:24:56.672Z,-4.40
2022-12-12T07:27:23.961Z,-4.40
2022-12-12T07:29:51.145Z,-4.40
2022-12-12T07:32:18.600Z,-4.20
2022-12-12T07:34:45.956Z,-4.10
2022-12-12T07:37:13.286Z,-3.90
2022-12-12T07:39:40.501Z,-4.00
2022-12-12T07:42:07.905Z,-3.80
2022-12-12T07:44:35.159Z,-3.70
2022-12-12T07:47:02.702Z,-3.70
2022-12-12T07:49:30.542Z,-3.60
2022-12-12T07:51:57.913Z,-3.60
2022-12-12T07:54:25.243Z,-3.50
2022-12-12T07:56:52.482Z,-3.30
2022-12-12T07:59:19.848Z,-3.40
2022-12-12T08:01:47.403Z,-3.20
2022-12-12T08:04:14.604Z,-3.20
2022-12-12T08:06:41.760Z,-3.20
2022-12-12T08:09:09.165Z,-2.90
2022-12-12T08:11:36.482Z,-3.00
2022-12-12T08:14:11.175Z,-2.90
2022-12-12T08:16:41.142Z,-2.80
2022-12-12T08:19:08.860Z,-3.00
2022-12-12T08:21:36.112Z,-2.80
2022-12-12T08:24:03.567Z,-2.50
2022-12-12T08:26:32.172Z,-2.50
2022-12-12T08:29:00.041Z,-3.00
2022-12-12T08:31:28.187Z,-2.30
2022-12-12T08:33:56.389Z,-2.70
2022-12-12T08:36:30.181Z,-2.60
2022-12-12T08:38:59.392Z,-2.70
2022-12-12T08:41:27.097Z,-2.40
2022-12-12T08:43:54.334Z,-2.60
2022-12-12T08:46:22.200Z,-2.50
2022-12-12T08:48:49.569Z,-2.40
2022-12-12T08:51:17.661Z,-2.40
2022-12-12T08:53:46.956Z,-2.30
2022-12-12T08:56:15.896Z,-2.20
2022-12-12T08:58:43.818Z,-2.10
2022-12-12T09:01:13.750Z,-2.00
2022-12-12T09:03:41.390Z,-2.00
2022-12-12T09:06:10.475Z,-1.90
2022-12-12T09:08:38.910Z,-1.80
2022-12-12T09:11:06.828Z,-1.80
2022-12-12T09:13:34.905Z,-1.90
2022-12-12T09:16:02.232Z,-1.80
2022-12-12T09:18:29.713Z,-2.10
2022-12-12T09:20:58.560Z,-1.70
2022-12-12T09:23:27.110Z,-1.80
2022-12-12T09:25:54.534Z,-1.80
2022-12-12T09:28:24.070Z,-1.50
2022-12-12T09:30:52.350Z,-1.60
2022-12-12T09:33:19.928Z,-1.40
2022-12-12T09:35:47.700Z,-1.40
2022-12-12T09:38:15.350Z,-1.40
2022-12-12T09:40:57.198Z,-1.40
2022-12-12T09:43:29.851Z,-1.40
2022-12-12T09:45:57.919Z,-1.20
2022-12-12T09:48:37.901Z,-1.20
2022-12-12T09:51:05.297Z,-1.40
2022-12-12T09:53:33.226Z,-1.30
2022-12-12T09:56:15.794Z,-1.00
2022-12-12T09:58:56.838Z,1.10
2022-12-12T10:01:55.224Z,-0.70
2022-12-12T10:07:45.233Z,0.20
2022-12-12T10:10:23.017Z,0.30
2022-12-12T10:12:54.763Z,-0.80
2022-12-12T10:15:33.784Z,0.20
2022-12-12T10:18:07.929Z,0.00
2022-12-12T10:20:46.890Z,-0.60
2022-12-12T10:23:29.446Z,-0.20
2022-12-12T10:26:05.235Z,-0.60
2022-12-12T10:28:34.876Z,-0.10
2022-12-12T10:31:42.260Z,-0.10
2022-12-12T10:34:33.423Z,0.20
2022-12-12T10:37:28.421Z,-0.50
2022-12-12T10:40:36.004Z,-0.70
2022-12-12T10:43:30.148Z,-0.90
2022-12-12T10:49:00.197Z,-0.30
2022-12-12T10:51:29.557Z,0.10
2022-12-12T10:53:59.482Z,-0.20
2022-12-12T10:56:30.783Z,0.10
2022-12-12T10:59:01.951Z,-1.90
2022-12-12T11:04:27.452Z,0.10
2022-12-12T11:06:56.341Z,-0.10
2022-12-12T11:09:28.560Z,-0.30
2022-12-12T11:12:12.399Z,-0.30
2022-12-12T11:14:48.742Z,-0.20
2022-12-12T11:17:25.882Z,0.00
2022-12-12T11:19:56.954Z,0.40
2022-12-12T11:22:25.263Z,0.80
2022-12-12T11:24:53.465Z,1.10
2022-12-12T11:27:28.058Z,0.90
2022-12-12T11:30:00.676Z,1.30
2022-12-12T11:32:38.386Z,1.30
2022-12-12T11:35:22.079Z,1.30
2022-12-12T11:37:55.985Z,1.40
2022-12-12T11:40:27.951Z,1.00
2022-12-12T11:43:25.161Z,0.90
2022-12-12T11:51:36.768Z,0.30
2022-12-12T11:54:11.911Z,0.30
2022-12-12T11:57:02.303Z,0.20
2022-12-12T12:02:54.593Z,0.30
2022-12-12T12:05:53.991Z,0.20
2022-12-12T12:11:46.463Z,0.10
2022-12-12T12:14:29.001Z,0.00
2022-12-12T12:20:04.973Z,0.10
2022-12-12T12:22:50.370Z,-0.10
2022-12-12T12:25:46.577Z,-0.20
2022-12-12T12:28:42.832Z,-0.10
2022-12-12T12:31:50.147Z,0.00
2022-12-12T12:34:40.937Z,0.00
2022-12-12T12:37:44.895Z,-0.10
2022-12-12T12:40:40.799Z,0.10
2022-12-12T12:43:39.532Z,0.30
2022-12-12T12:46:18.334Z,0.20
2022-12-12T12:48:50.789Z,0.10
2022-12-12T12:51:27.354Z,0.10
2022-12-12T12:54:06.144Z,0.10
2022-12-12T12:56:43.583Z,0.10
2022-12-12T12:59:20.517Z,0.20
2022-12-12T13:01:52.381Z,0.30
2022-12-12T13:04:28.622Z,0.30
2022-12-12T13:07:21.964Z,0.40
2022-12-12T13:12:40.224Z,0.50
2022-12-12T13:15:35.256Z,0.10
2022-12-12T13:18:06.647Z,0.10
2022-12-12T13:20:39.120Z,0.10
2022-12-12T13:23:37.913Z,0.00
2022-12-12T13:26:30.191Z,0.00
2022-12-12T13:31:56.234Z,-0.10
2022-12-12T13:34:27.219Z,-0.20
2022-12-12T13:36:56.472Z,-0.30
2022-12-12T13:39:32.909Z,-0.40
2022-12-12T13:42:05.819Z,-0.60
2022-12-12T13:44:47.231Z,-0.60
2022-12-12T13:55:46.087Z,-0.90
2022-12-12T13:58:33.182Z,-1.00
2022-12-12T14:01:33.970Z,-1.00
2022-12-12T14:04:03.112Z,-1.00
2022-12-12T14:06:30.998Z,-1.10
2022-12-12T14:08:59.154Z,-1.10
2022-12-12T14:11:32.248Z,-1.20
2022-12-12T14:14:07.841Z,-1.20
2022-12-12T14:16:36.194Z,-1.10
2022-12-12T14:19:07.682Z,-1.10
2022-12-12T14:21:45.917Z,-1.10
2022-12-12T14:24:35.938Z,-1.10
2022-12-12T14:27:06.923Z,-1.10
2022-12-12T14:29:40.500Z,-1.20
2022-12-12T14:32:35.749Z,-1.20
2022-12-12T14:35:42.889Z,-1.40
2022-12-12T14:38:37.211Z,-1.30
2022-12-12T14:41:11.565Z,-1.30
2022-12-12T14:43:46.708Z,-1.30
2022-12-12T14:46:41.262Z,-1.30
2022-12-12T14:49:15.779Z,-1.30
2022-12-12T14:51:45.470Z,-1.30
2022-12-12T14:54:17.484Z,-1.40
2022-12-12T14:56:52.708Z,-1.40
2022-12-12T14:59:24.775Z,-1.40
2022-12-12T15:01:57.420Z,-1.50
2022-12-12T15:04:28.002Z,-1.50
2022-12-12T15:07:01.048Z,-1.60
2022-12-12T15:09:33.134Z,-1.60
2022-12-12T15:12:18.367Z,-1.70
2022-12-12T15:17:32.042Z,-1.70
2022-12-12T15:20:15.204Z,-1.70
2022-12-12T15:23:01.072Z,-1.70
2022-12-12T15:25:32.984Z,-1.80
2022-12-12T15:28:01.883Z,-1.80
2022-12-12T15:30:39.217Z,-2.20
2022-12-12T15:33:14.313Z,-2.00
2022-12-12T15:35:49.928Z,-2.00
2022-12-12T15:38:17.504Z,-2.10
2022-12-12T15:40:51.274Z,-2.10
2022-12-12T15:43:24.147Z,-2.20
2022-12-12T15:45:59.284Z,-2.20
2022-12-12T15:48:27.170Z,-2.30
2022-12-12T15:50:59.281Z,-2.30
2022-12-12T15:53:31.434Z,-2.30
2022-12-12T15:58:39.709Z,-2.30
2022-12-12T16:06:34.799Z,-2.50
2022-12-12T16:11:43.437Z,-2.80
2022-12-12T16:14:40.099Z,-2.60
2022-12-12T16:17:19.302Z,-2.60
2022-12-12T16:19:57.372Z,-2.70
2022-12-12T16:25:26.436Z,-2.80
2022-12-12T16:28:17.940Z,-2.60
2022-12-12T16:30:53.405Z,-2.60
2022-12-12T16:33:38.134Z,-2.60
2022-12-12T16:36:09.656Z,-3.40
2022-12-12T16:38:37.171Z,-2.50
2022-12-12T16:41:08.122Z,-2.40
2022-12-12T16:43:35.409Z,-2.50
2022-12-12T16:46:02.508Z,-2.50
2022-12-12T16:48:35.210Z,-2.60
2022-12-12T16:51:04.094Z,-2.60
2022-12-12T16:53:31.342Z,-2.70
2022-12-12T16:55:58.661Z,-2.70
2022-12-12T16:58:25.824Z,-2.70
